sensor_id;sensor_type;location;lat;lon;timestamp;temperature;humidity
67555;HTU21D;54385;53.516;49.456;2022-11-13T00:02:25;7.47;102.38
67555;HTU21D;54385;53.516;49.456;2022-11-13T00:04:51;7.41;102.44
67555;HTU21D;54385;53.516;49.456;2022-11-13T00:07:18;7.38;102.54
67555;HTU21D;54385;53.516;49.456;2022-11-13T00:09:44;7.28;102.55
67555;HTU21D;54385;53.516;49.456;2022-11-13T00:12:10;7.31;102.75
67555;HTU21D;54385;53.516;49.456;2022-11-13T00:14:37;7.30;102.88
67555;HTU21D;54385;53.516;49.456;2022-11-13T00:17:03;7.30;102.96
67555;HTU21D;54385;53.516;49.456;2022-11-13T00:19:32;7.37;103.11
67555;HTU21D;54385;53.516;49.456;2022-11-13T00:21:58;7.38;103.16
67555;HTU21D;54385;53.516;49.456;2022-11-13T00:24:25;7.34;103.13
67555;HTU21D;54385;53.516;49.456;2022-11-13T00:26:51;7.31;103.05
67555;HTU21D;54385;53.516;49.456;2022-11-13T00:29:18;7.22;102.93
67555;HTU21D;54385;53.516;49.456;2022-11-13T00:31:44;7.15;102.79
67555;HTU21D;54385;53.516;49.456;2022-11-13T00:34:10;7.11;102.63
67555;HTU21D;54385;53.516;49.456;2022-11-13T00:36:37;7.08;102.47
67555;HTU21D;54385;53.516;49.456;2022-11-13T00:39:03;7.02;102.27
67555;HTU21D;54385;53.516;49.456;2022-11-13T00:41:29;7.09;102.25
67555;HTU21D;54385;53.516;49.456;2022-11-13T00:43:56;7.04;101.97
67555;HTU21D;54385;53.516;49.456;2022-11-13T00:46:22;7.01;101.81
67555;HTU21D;54385;53.516;49.456;2022-11-13T00:48:48;7.08;101.64
67555;HTU21D;54385;53.516;49.456;2022-11-13T00:51:15;7.10;101.44
67555;HTU21D;54385;53.516;49.456;2022-11-13T00:53:41;7.08;101.12
67555;HTU21D;54385;53.516;49.456;2022-11-13T00:56:07;7.18;101.06
67555;HTU21D;54385;53.516;49.456;2022-11-13T00:58:34;7.19;100.86
67555;HTU21D;54385;53.516;49.456;2022-11-13T01:01:06;7.18;100.61
67555;HTU21D;54385;53.516;49.456;2022-11-13T01:03:33;7.16;100.31
67555;HTU21D;54385;53.516;49.456;2022-11-13T01:05:59;7.17;100.09
67555;HTU21D;54385;53.516;49.456;2022-11-13T01:08:26;7.23;100.01
67555;HTU21D;54385;53.516;49.456;2022-11-13T01:10:52;7.22;99.91
67555;HTU21D;54385;53.516;49.456;2022-11-13T01:13:18;7.26;99.90
67555;HTU21D;54385;53.516;49.456;2022-11-13T01:15:45;7.29;99.86
67555;HTU21D;54385;53.516;49.456;2022-11-13T01:18:12;7.34;99.90
67555;HTU21D;54385;53.516;49.456;2022-11-13T01:20:38;7.40;100.00
67555;HTU21D;54385;53.516;49.456;2022-11-13T01:23:04;7.43;100.21
67555;HTU21D;54385;53.516;49.456;2022-11-13T01:25:31;7.46;100.39
67555;HTU21D;54385;53.516;49.456;2022-11-13T01:27:58;7.44;100.26
67555;HTU21D;54385;53.516;49.456;2022-11-13T01:30:24;7.39;100.16
67555;HTU21D;54385;53.516;49.456;2022-11-13T01:32:50;7.41;99.64
67555;HTU21D;54385;53.516;49.456;2022-11-13T01:35:17;7.50;99.41
67555;HTU21D;54385;53.516;49.456;2022-11-13T01:37:43;7.49;99.34
67555;HTU21D;54385;53.516;49.456;2022-11-13T01:40:11;7.49;99.30
67555;HTU21D;54385;53.516;49.456;2022-11-13T01:42:38;7.59;99.38
67555;HTU21D;54385;53.516;49.456;2022-11-13T01:48:11;8.03;99.89
67555;HTU21D;54385;53.516;49.456;2022-11-13T01:50:37;8.21;99.93
67555;HTU21D;54385;53.516;49.456;2022-11-13T01:53:04;8.34;99.29
67555;HTU21D;54385;53.516;49.456;2022-11-13T01:55:31;8.39;94.49
67555;HTU21D;54385;53.516;49.456;2022-11-13T01:57:57;8.43;86.81
67555;HTU21D;54385;53.516;49.456;2022-11-13T02:00:25;8.55;82.66
67555;HTU21D;54385;53.516;49.456;2022-11-13T02:02:51;8.64;78.91
67555;HTU21D;54385;53.516;49.456;2022-11-13T02:05:17;8.68;77.24
67555;HTU21D;54385;53.516;49.456;2022-11-13T02:07:44;8.77;76.43
67555;HTU21D;54385;53.516;49.456;2022-11-13T02:10:10;8.81;75.48
67555;HTU21D;54385;53.516;49.456;2022-11-13T02:12:38;8.79;74.31
67555;HTU21D;54385;53.516;49.456;2022-11-13T02:15:06;8.86;72.90
67555;HTU21D;54385;53.516;49.456;2022-11-13T02:17:43;8.85;72.80
67555;HTU21D;54385;53.516;49.456;2022-11-13T02:20:11;8.83;72.51
67555;HTU21D;54385;53.516;49.456;2022-11-13T02:22:46;8.85;71.79
67555;HTU21D;54385;53.516;49.456;2022-11-13T02:25:15;8.86;72.58
67555;HTU21D;54385;53.516;49.456;2022-11-13T02:27:45;8.87;73.48
67555;HTU21D;54385;53.516;49.456;2022-11-13T02:30:13;8.83;71.19
67555;HTU21D;54385;53.516;49.456;2022-11-13T02:32:50;8.86;71.67
67555;HTU21D;54385;53.516;49.456;2022-11-13T02:35:36;8.88;71.16
67555;HTU21D;54385;53.516;49.456;2022-11-13T02:38:04;8.86;68.80
67555;HTU21D;54385;53.516;49.456;2022-11-13T02:40:32;8.88;70.24
67555;HTU21D;54385;53.516;49.456;2022-11-13T02:42:59;8.86;69.54
67555;HTU21D;54385;53.516;49.456;2022-11-13T02:45:25;8.85;69.39
67555;HTU21D;54385;53.516;49.456;2022-11-13T02:47:53;8.87;70.42
67555;HTU21D;54385;53.516;49.456;2022-11-13T02:50:19;8.88;70.58
67555;HTU21D;54385;53.516;49.456;2022-11-13T02:52:46;8.86;70.05
67555;HTU21D;54385;53.516;49.456;2022-11-13T02:55:13;8.87;70.39
67555;HTU21D;54385;53.516;49.456;2022-11-13T02:57:39;8.86;69.85
67555;HTU21D;54385;53.516;49.456;2022-11-13T03:00:06;8.86;69.74
67555;HTU21D;54385;53.516;49.456;2022-11-13T03:02:32;8.85;69.74
67555;HTU21D;54385;53.516;49.456;2022-11-13T03:04:58;8.83;70.08
67555;HTU21D;54385;53.516;49.456;2022-11-13T03:07:27;8.79;68.71
67555;HTU21D;54385;53.516;49.456;2022-11-13T03:09:54;8.80;70.55
67555;HTU21D;54385;53.516;49.456;2022-11-13T03:12:22;8.75;68.30
67555;HTU21D;54385;53.516;49.456;2022-11-13T03:14:48;8.76;66.92
67555;HTU21D;54385;53.516;49.456;2022-11-13T03:17:15;8.79;65.87
67555;HTU21D;54385;53.516;49.456;2022-11-13T03:19:41;8.78;66.68
67555;HTU21D;54385;53.516;49.456;2022-11-13T03:22:10;8.78;67.33
67555;HTU21D;54385;53.516;49.456;2022-11-13T03:24:37;8.76;67.69
67555;HTU21D;54385;53.516;49.456;2022-11-13T03:27:03;8.72;66.94
67555;HTU21D;54385;53.516;49.456;2022-11-13T03:29:30;8.75;67.72
67555;HTU21D;54385;53.516;49.456;2022-11-13T03:31:56;8.75;68.81
67555;HTU21D;54385;53.516;49.456;2022-11-13T03:34:22;8.73;68.66
67555;HTU21D;54385;53.516;49.456;2022-11-13T03:36:49;8.68;69.29
67555;HTU21D;54385;53.516;49.456;2022-11-13T03:39:15;8.65;69.21
67555;HTU21D;54385;53.516;49.456;2022-11-13T03:41:41;8.63;69.18
67555;HTU21D;54385;53.516;49.456;2022-11-13T03:44:08;8.63;69.06
67555;HTU21D;54385;53.516;49.456;2022-11-13T03:46:34;8.63;70.07
67555;HTU21D;54385;53.516;49.456;2022-11-13T03:49:01;8.58;70.06
67555;HTU21D;54385;53.516;49.456;2022-11-13T03:51:27;8.56;68.41
67555;HTU21D;54385;53.516;49.456;2022-11-13T03:53:53;8.59;69.91
67555;HTU21D;54385;53.516;49.456;2022-11-13T03:56:20;8.56;68.79
67555;HTU21D;54385;53.516;49.456;2022-11-13T03:58:46;8.55;68.81
67555;HTU21D;54385;53.516;49.456;2022-11-13T04:01:12;8.53;68.90
67555;HTU21D;54385;53.516;49.456;2022-11-13T04:03:39;8.57;69.10
67555;HTU21D;54385;53.516;49.456;2022-11-13T04:06:05;8.56;67.21
67555;HTU21D;54385;53.516;49.456;2022-11-13T04:08:31;8.53;66.65
67555;HTU21D;54385;53.516;49.456;2022-11-13T04:11:11;8.57;67.46
67555;HTU21D;54385;53.516;49.456;2022-11-13T04:13:38;8.57;66.73
67555;HTU21D;54385;53.516;49.456;2022-11-13T04:16:04;8.60;65.85
67555;HTU21D;54385;53.516;49.456;2022-11-13T04:18:31;8.58;65.89
67555;HTU21D;54385;53.516;49.456;2022-11-13T04:21:02;8.53;66.43
67555;HTU21D;54385;53.516;49.456;2022-11-13T04:23:29;8.52;66.20
67555;HTU21D;54385;53.516;49.456;2022-11-13T04:25:55;8.50;67.07
67555;HTU21D;54385;53.516;49.456;2022-11-13T04:28:22;8.51;66.98
67555;HTU21D;54385;53.516;49.456;2022-11-13T04:30:49;8.51;67.71
67555;HTU21D;54385;53.516;49.456;2022-11-13T04:33:17;8.51;67.29
67555;HTU21D;54385;53.516;49.456;2022-11-13T04:35:43;8.52;67.95
67555;HTU21D;54385;53.516;49.456;2022-11-13T04:38:11;8.52;66.39
67555;HTU21D;54385;53.516;49.456;2022-11-13T04:40:39;8.47;67.39
67555;HTU21D;54385;53.516;49.456;2022-11-13T04:43:05;8.49;68.33
67555;HTU21D;54385;53.516;49.456;2022-11-13T04:45:32;8.49;67.19
67555;HTU21D;54385;53.516;49.456;2022-11-13T04:47:59;8.46;66.38
67555;HTU21D;54385;53.516;49.456;2022-11-13T04:50:25;8.44;66.16
67555;HTU21D;54385;53.516;49.456;2022-11-13T04:52:52;8.42;66.64
67555;HTU21D;54385;53.516;49.456;2022-11-13T04:55:18;8.42;66.42
67555;HTU21D;54385;53.516;49.456;2022-11-13T04:57:45;8.43;66.77
67555;HTU21D;54385;53.516;49.456;2022-11-13T05:00:12;8.38;67.01
67555;HTU21D;54385;53.516;49.456;2022-11-13T05:02:38;8.34;66.35
67555;HTU21D;54385;53.516;49.456;2022-11-13T05:05:05;8.32;67.60
67555;HTU21D;54385;53.516;49.456;2022-11-13T05:07:31;8.33;66.49
67555;HTU21D;54385;53.516;49.456;2022-11-13T05:09:57;8.31;66.48
67555;HTU21D;54385;53.516;49.456;2022-11-13T05:12:24;8.30;66.69
67555;HTU21D;54385;53.516;49.456;2022-11-13T05:14:50;8.22;66.97
67555;HTU21D;54385;53.516;49.456;2022-11-13T05:17:16;8.15;67.29
67555;HTU21D;54385;53.516;49.456;2022-11-13T05:19:43;8.14;67.14
67555;HTU21D;54385;53.516;49.456;2022-11-13T05:22:09;8.15;67.21
67555;HTU21D;54385;53.516;49.456;2022-11-13T05:24:35;8.18;66.83
67555;HTU21D;54385;53.516;49.456;2022-11-13T05:27:02;8.20;67.16
67555;HTU21D;54385;53.516;49.456;2022-11-13T05:29:28;8.20;66.65
67555;HTU21D;54385;53.516;49.456;2022-11-13T05:31:54;8.19;66.65
67555;HTU21D;54385;53.516;49.456;2022-11-13T05:34:21;8.18;66.28
67555;HTU21D;54385;53.516;49.456;2022-11-13T05:36:47;8.15;66.20
67555;HTU21D;54385;53.516;49.456;2022-11-13T05:39:13;8.18;66.92
67555;HTU21D;54385;53.516;49.456;2022-11-13T05:41:39;8.21;66.44
67555;HTU21D;54385;53.516;49.456;2022-11-13T05:44:06;8.19;66.30
67555;HTU21D;54385;53.516;49.456;2022-11-13T05:46:32;8.20;66.90
67555;HTU21D;54385;53.516;49.456;2022-11-13T05:49:00;8.22;67.05
67555;HTU21D;54385;53.516;49.456;2022-11-13T05:51:29;8.24;66.97
67555;HTU21D;54385;53.516;49.456;2022-11-13T05:53:56;8.27;67.06
67555;HTU21D;54385;53.516;49.456;2022-11-13T05:56:25;8.26;66.85
67555;HTU21D;54385;53.516;49.456;2022-11-13T05:58:53;8.27;67.21
67555;HTU21D;54385;53.516;49.456;2022-11-13T06:03:49;8.27;66.14
67555;HTU21D;54385;53.516;49.456;2022-11-13T06:06:18;8.26;67.04
67555;HTU21D;54385;53.516;49.456;2022-11-13T06:08:46;8.27;66.17
67555;HTU21D;54385;53.516;49.456;2022-11-13T06:11:17;8.28;66.33
67555;HTU21D;54385;53.516;49.456;2022-11-13T06:13:45;8.23;67.41
67555;HTU21D;54385;53.516;49.456;2022-11-13T06:16:20;8.23;67.91
67555;HTU21D;54385;53.516;49.456;2022-11-13T06:18:47;8.28;66.10
67555;HTU21D;54385;53.516;49.456;2022-11-13T06:21:17;8.29;67.44
67555;HTU21D;54385;53.516;49.456;2022-11-13T06:23:44;8.29;66.65
67555;HTU21D;54385;53.516;49.456;2022-11-13T06:26:11;8.30;66.85
67555;HTU21D;54385;53.516;49.456;2022-11-13T06:28:38;8.27;67.53
67555;HTU21D;54385;53.516;49.456;2022-11-13T06:31:14;8.21;67.74
67555;HTU21D;54385;53.516;49.456;2022-11-13T06:33:41;8.21;67.50
67555;HTU21D;54385;53.516;49.456;2022-11-13T06:36:20;8.17;67.57
67555;HTU21D;54385;53.516;49.456;2022-11-13T06:38:50;8.09;67.32
67555;HTU21D;54385;53.516;49.456;2022-11-13T06:41:19;8.11;67.21
67555;HTU21D;54385;53.516;49.456;2022-11-13T06:43:46;8.08;67.55
67555;HTU21D;54385;53.516;49.456;2022-11-13T06:46:15;8.09;67.45
67555;HTU21D;54385;53.516;49.456;2022-11-13T06:48:42;8.05;67.18
67555;HTU21D;54385;53.516;49.456;2022-11-13T06:51:14;8.03;68.13
67555;HTU21D;54385;53.516;49.456;2022-11-13T06:53:41;8.03;67.56
67555;HTU21D;54385;53.516;49.456;2022-11-13T06:56:07;8.00;67.08
67555;HTU21D;54385;53.516;49.456;2022-11-13T06:58:34;8.01;67.21
67555;HTU21D;54385;53.516;49.456;2022-11-13T07:01:08;8.04;67.76
67555;HTU21D;54385;53.516;49.456;2022-11-13T07:03:35;8.04;67.07
67555;HTU21D;54385;53.516;49.456;2022-11-13T07:06:04;8.05;67.39
67555;HTU21D;54385;53.516;49.456;2022-11-13T07:08:31;8.07;66.88
67555;HTU21D;54385;53.516;49.456;2022-11-13T07:10:58;8.06;67.33
67555;HTU21D;54385;53.516;49.456;2022-11-13T07:13:26;8.06;67.05
67555;HTU21D;54385;53.516;49.456;2022-11-13T07:15:53;8.03;66.56
67555;HTU21D;54385;53.516;49.456;2022-11-13T07:18:19;8.01;66.78
67555;HTU21D;54385;53.516;49.456;2022-11-13T07:20:47;8.03;67.59
67555;HTU21D;54385;53.516;49.456;2022-11-13T07:23:14;8.03;67.59
67555;HTU21D;54385;53.516;49.456;2022-11-13T07:25:40;8.02;67.43
67555;HTU21D;54385;53.516;49.456;2022-11-13T07:28:06;8.01;67.89
67555;HTU21D;54385;53.516;49.456;2022-11-13T07:30:33;8.04;68.13
67555;HTU21D;54385;53.516;49.456;2022-11-13T07:33:03;8.02;67.16
67555;HTU21D;54385;53.516;49.456;2022-11-13T07:35:29;8.04;67.38
67555;HTU21D;54385;53.516;49.456;2022-11-13T07:37:59;8.12;67.14
67555;HTU21D;54385;53.516;49.456;2022-11-13T07:40:25;8.11;67.04
67555;HTU21D;54385;53.516;49.456;2022-11-13T07:42:59;8.09;67.81
67555;HTU21D;54385;53.516;49.456;2022-11-13T07:45:26;8.12;67.59
67555;HTU21D;54385;53.516;49.456;2022-11-13T07:48:00;8.14;67.51
67555;HTU21D;54385;53.516;49.456;2022-11-13T07:50:28;8.15;67.14
67555;HTU21D;54385;53.516;49.456;2022-11-13T07:52:59;8.19;66.92
67555;HTU21D;54385;53.516;49.456;2022-11-13T07:55:26;8.24;66.49
67555;HTU21D;54385;53.516;49.456;2022-11-13T07:57:57;8.31;67.48
67555;HTU21D;54385;53.516;49.456;2022-11-13T08:00:25;8.32;65.95
67555;HTU21D;54385;53.516;49.456;2022-11-13T08:02:52;8.30;66.27
67555;HTU21D;54385;53.516;49.456;2022-11-13T08:05:18;8.30;66.30
67555;HTU21D;54385;53.516;49.456;2022-11-13T08:07:49;8.30;66.06
67555;HTU21D;54385;53.516;49.456;2022-11-13T08:10:17;8.33;66.11
67555;HTU21D;54385;53.516;49.456;2022-11-13T08:12:44;8.34;66.84
67555;HTU21D;54385;53.516;49.456;2022-11-13T08:15:11;8.28;66.17
67555;HTU21D;54385;53.516;49.456;2022-11-13T08:17:37;8.30;65.76
67555;HTU21D;54385;53.516;49.456;2022-11-13T08:20:05;8.23;69.26
67555;HTU21D;54385;53.516;49.456;2022-11-13T08:22:32;8.23;65.71
67555;HTU21D;54385;53.516;49.456;2022-11-13T08:24:58;8.32;65.19
67555;HTU21D;54385;53.516;49.456;2022-11-13T08:27:25;8.39;64.53
67555;HTU21D;54385;53.516;49.456;2022-11-13T08:29:51;8.43;65.20
67555;HTU21D;54385;53.516;49.456;2022-11-13T08:32:18;8.43;64.60
67555;HTU21D;54385;53.516;49.456;2022-11-13T08:34:45;8.42;64.76
67555;HTU21D;54385;53.516;49.456;2022-11-13T08:37:11;8.45;64.50
67555;HTU21D;54385;53.516;49.456;2022-11-13T08:39:37;8.45;64.16
67555;HTU21D;54385;53.516;49.456;2022-11-13T08:42:04;8.39;64.69
67555;HTU21D;54385;53.516;49.456;2022-11-13T08:44:30;8.42;64.31
67555;HTU21D;54385;53.516;49.456;2022-11-13T08:46:57;8.34;64.23
67555;HTU21D;54385;53.516;49.456;2022-11-13T08:49:23;8.30;64.84
67555;HTU21D;54385;53.516;49.456;2022-11-13T08:51:50;8.28;66.59
67555;HTU21D;54385;53.516;49.456;2022-11-13T08:54:16;8.12;66.96
67555;HTU21D;54385;53.516;49.456;2022-11-13T08:56:42;8.03;66.88
67555;HTU21D;54385;53.516;49.456;2022-11-13T08:59:09;7.91;70.93
67555;HTU21D;54385;53.516;49.456;2022-11-13T09:01:35;7.74;72.34
67555;HTU21D;54385;53.516;49.456;2022-11-13T09:04:02;7.67;71.29
67555;HTU21D;54385;53.516;49.456;2022-11-13T09:06:28;7.72;69.36
67555;HTU21D;54385;53.516;49.456;2022-11-13T09:08:55;7.71;69.38
67555;HTU21D;54385;53.516;49.456;2022-11-13T09:11:21;7.65;76.31
67555;HTU21D;54385;53.516;49.456;2022-11-13T09:13:47;7.56;73.80
67555;HTU21D;54385;53.516;49.456;2022-11-13T09:16:14;7.58;72.80
67555;HTU21D;54385;53.516;49.456;2022-11-13T09:18:40;7.56;71.09
67555;HTU21D;54385;53.516;49.456;2022-11-13T09:21:06;7.52;71.73
67555;HTU21D;54385;53.516;49.456;2022-11-13T09:23:33;7.46;73.35
67555;HTU21D;54385;53.516;49.456;2022-11-13T09:26:00;7.46;71.59
67555;HTU21D;54385;53.516;49.456;2022-11-13T09:28:28;7.45;72.77
67555;HTU21D;54385;53.516;49.456;2022-11-13T09:30:55;7.35;74.68
67555;HTU21D;54385;53.516;49.456;2022-11-13T09:33:21;7.29;73.06
67555;HTU21D;54385;53.516;49.456;2022-11-13T09:35:47;7.25;75.05
67555;HTU21D;54385;53.516;49.456;2022-11-13T09:38:15;7.20;74.20
67555;HTU21D;54385;53.516;49.456;2022-11-13T09:43:39;7.27;76.17
67555;HTU21D;54385;53.516;49.456;2022-11-13T09:46:34;7.01;79.37
67555;HTU21D;54385;53.516;49.456;2022-11-13T09:51:54;6.79;80.55
67555;HTU21D;54385;53.516;49.456;2022-11-13T09:54:21;6.83;77.82
67555;HTU21D;54385;53.516;49.456;2022-11-13T10:05:03;6.86;77.69
67555;HTU21D;54385;53.516;49.456;2022-11-13T10:07:35;6.79;79.80
67555;HTU21D;54385;53.516;49.456;2022-11-13T10:12:50;6.69;80.43
67555;HTU21D;54385;53.516;49.456;2022-11-13T10:15:18;6.61;81.16
67555;HTU21D;54385;53.516;49.456;2022-11-13T10:18:09;6.29;87.99
67555;HTU21D;54385;53.516;49.456;2022-11-13T10:20:43;5.72;91.56
67555;HTU21D;54385;53.516;49.456;2022-11-13T10:23:23;5.46;93.37
67555;HTU21D;54385;53.516;49.456;2022-11-13T10:25:51;5.30;93.60
67555;HTU21D;54385;53.516;49.456;2022-11-13T10:28:25;5.27;95.39
67555;HTU21D;54385;53.516;49.456;2022-11-13T10:30:54;5.23;95.91
67555;HTU21D;54385;53.516;49.456;2022-11-13T10:33:21;5.22;96.49
67555;HTU21D;54385;53.516;49.456;2022-11-13T10:38:43;5.18;97.36
67555;HTU21D;54385;53.516;49.456;2022-11-13T10:41:14;5.06;97.12
67555;HTU21D;54385;53.516;49.456;2022-11-13T10:46:30;5.02;97.75
67555;HTU21D;54385;53.516;49.456;2022-11-13T10:48:57;5.05;98.24
67555;HTU21D;54385;53.516;49.456;2022-11-13T10:51:31;5.08;98.73
67555;HTU21D;54385;53.516;49.456;2022-11-13T10:54:00;5.05;98.98
67555;HTU21D;54385;53.516;49.456;2022-11-13T10:56:39;5.03;99.06
67555;HTU21D;54385;53.516;49.456;2022-11-13T10:59:12;5.09;99.48
67555;HTU21D;54385;53.516;49.456;2022-11-13T11:01:40;5.09;99.72
67555;HTU21D;54385;53.516;49.456;2022-11-13T11:04:24;5.16;99.93
67555;HTU21D;54385;53.516;49.456;2022-11-13T11:06:53;5.10;99.93
67555;HTU21D;54385;53.516;49.456;2022-11-13T11:09:24;5.10;100.14
67555;HTU21D;54385;53.516;49.456;2022-11-13T11:12:00;5.06;100.21
67555;HTU21D;54385;53.516;49.456;2022-11-13T11:17:30;4.94;100.41
67555;HTU21D;54385;53.516;49.456;2022-11-13T11:20:06;4.95;100.69
67555;HTU21D;54385;53.516;49.456;2022-11-13T11:22:35;4.96;100.98
67555;HTU21D;54385;53.516;49.456;2022-11-13T11:25:33;5.03;101.35
67555;HTU21D;54385;53.516;49.456;2022-11-13T11:31:27;4.96;101.65
67555;HTU21D;54385;53.516;49.456;2022-11-13T11:34:18;4.95;101.83
67555;HTU21D;54385;53.516;49.456;2022-11-13T11:36:56;4.91;101.90
67555;HTU21D;54385;53.516;49.456;2022-11-13T11:39:46;4.94;102.05
67555;HTU21D;54385;53.516;49.456;2022-11-13T11:42:21;4.94;102.13
67555;HTU21D;54385;53.516;49.456;2022-11-13T11:47:40;4.93;102.61
67555;HTU21D;54385;53.516;49.456;2022-11-13T11:50:16;4.88;102.70
67555;HTU21D;54385;53.516;49.456;2022-11-13T11:53:03;4.81;102.70
67555;HTU21D;54385;53.516;49.456;2022-11-13T11:55:45;4.78;102.77
67555;HTU21D;54385;53.516;49.456;2022-11-13T11:58:33;4.79;103.10
67555;HTU21D;54385;53.516;49.456;2022-11-13T12:01:06;4.83;103.47
67555;HTU21D;54385;53.516;49.456;2022-11-13T12:12:09;4.76;104.69
67555;HTU21D;54385;53.516;49.456;2022-11-13T12:25:45;4.72;107.00
67555;HTU21D;54385;53.516;49.456;2022-11-13T12:36:23;4.61;106.27
67555;HTU21D;54385;53.516;49.456;2022-11-13T12:39:04;4.62;106.29
67555;HTU21D;54385;53.516;49.456;2022-11-13T12:44:34;4.64;106.59
67555;HTU21D;54385;53.516;49.456;2022-11-13T12:47:06;4.63;106.68
67555;HTU21D;54385;53.516;49.456;2022-11-13T12:49:35;4.63;107.11
67555;HTU21D;54385;53.516;49.456;2022-11-13T12:52:20;4.62;107.49
67555;HTU21D;54385;53.516;49.456;2022-11-13T12:54:48;4.65;107.89
67555;HTU21D;54385;53.516;49.456;2022-11-13T12:57:21;4.66;107.99
67555;HTU21D;54385;53.516;49.456;2022-11-13T12:59:54;4.68;108.20
67555;HTU21D;54385;53.516;49.456;2022-11-13T13:11:15;4.66;108.51
67555;HTU21D;54385;53.516;49.456;2022-11-13T13:16:32;4.67;108.24
67555;HTU21D;54385;53.516;49.456;2022-11-13T13:21:49;4.64;108.32
67555;HTU21D;54385;53.516;49.456;2022-11-13T13:24:33;4.64;108.36
67555;HTU21D;54385;53.516;49.456;2022-11-13T13:27:00;4.58;109.50
67555;HTU21D;54385;53.516;49.456;2022-11-13T13:29:28;4.51;109.59
67555;HTU21D;54385;53.516;49.456;2022-11-13T13:35:41;4.43;109.53
67555;HTU21D;54385;53.516;49.456;2022-11-13T13:38:00;4.45;110.13
67555;HTU21D;54385;53.516;49.456;2022-11-13T13:49:14;4.50;110.76
67555;HTU21D;54385;53.516;49.456;2022-11-13T13:51:45;4.49;111.24
67555;HTU21D;54385;53.516;49.456;2022-11-13T13:54:25;4.49;111.18
67555;HTU21D;54385;53.516;49.456;2022-11-13T13:56:56;4.45;110.27
67555;HTU21D;54385;53.516;49.456;2022-11-13T13:59:34;4.41;110.14
67555;HTU21D;54385;53.516;49.456;2022-11-13T14:02:14;4.28;110.16
67555;HTU21D;54385;53.516;49.456;2022-11-13T14:04:44;4.28;110.24
67555;HTU21D;54385;53.516;49.456;2022-11-13T14:07:23;4.29;110.33
67555;HTU21D;54385;53.516;49.456;2022-11-13T14:10:17;4.19;110.31
67555;HTU21D;54385;53.516;49.456;2022-11-13T14:12:46;4.21;110.36
67555;HTU21D;54385;53.516;49.456;2022-11-13T14:15:27;4.19;110.59
67555;HTU21D;54385;53.516;49.456;2022-11-13T14:18:15;4.23;110.76
67555;HTU21D;54385;53.516;49.456;2022-11-13T14:20:51;4.19;110.72
67555;HTU21D;54385;53.516;49.456;2022-11-13T14:23:29;4.20;110.74
67555;HTU21D;54385;53.516;49.456;2022-11-13T14:25:57;4.19;110.83
67555;HTU21D;54385;53.516;49.456;2022-11-13T14:28:26;4.15;110.78
67555;HTU21D;54385;53.516;49.456;2022-11-13T14:31:01;4.16;110.96
67555;HTU21D;54385;53.516;49.456;2022-11-13T14:33:40;4.17;110.82
67555;HTU21D;54385;53.516;49.456;2022-11-13T14:36:10;4.14;110.89
67555;HTU21D;54385;53.516;49.456;2022-11-13T14:38:42;4.08;110.84
67555;HTU21D;54385;53.516;49.456;2022-11-13T14:41:37;4.07;110.93
67555;HTU21D;54385;53.516;49.456;2022-11-13T14:44:05;4.09;110.94
67555;HTU21D;54385;53.516;49.456;2022-11-13T14:46:37;4.06;110.95
67555;HTU21D;54385;53.516;49.456;2022-11-13T14:49:33;4.04;111.04
67555;HTU21D;54385;53.516;49.456;2022-11-13T14:51:58;4.05;111.20
67555;HTU21D;54385;53.516;49.456;2022-11-13T14:54:31;4.05;111.05
67555;HTU21D;54385;53.516;49.456;2022-11-13T14:57:12;3.99;111.07
67555;HTU21D;54385;53.516;49.456;2022-11-13T14:59:39;4.00;111.07
67555;HTU21D;54385;53.516;49.456;2022-11-13T15:02:10;3.98;111.20
67555;HTU21D;54385;53.516;49.456;2022-11-13T15:04:37;3.93;111.21
67555;HTU21D;54385;53.516;49.456;2022-11-13T15:07:28;3.94;111.23
67555;HTU21D;54385;53.516;49.456;2022-11-13T15:09:55;3.94;111.22
67555;HTU21D;54385;53.516;49.456;2022-11-13T15:12:22;3.94;111.23
67555;HTU21D;54385;53.516;49.456;2022-11-13T15:14:49;3.93;111.22
67555;HTU21D;54385;53.516;49.456;2022-11-13T15:17:20;3.98;111.27
67555;HTU21D;54385;53.516;49.456;2022-11-13T15:19:50;3.92;111.33
67555;HTU21D;54385;53.516;49.456;2022-11-13T15:22:17;4.01;111.53
67555;HTU21D;54385;53.516;49.456;2022-11-13T15:24:44;3.95;111.59
67555;HTU21D;54385;53.516;49.456;2022-11-13T15:27:15;3.97;111.56
67555;HTU21D;54385;53.516;49.456;2022-11-13T15:29:42;3.93;111.62
67555;HTU21D;54385;53.516;49.456;2022-11-13T15:32:13;3.90;111.62
67555;HTU21D;54385;53.516;49.456;2022-11-13T15:34:41;3.97;111.52
67555;HTU21D;54385;53.516;49.456;2022-11-13T15:37:14;3.99;111.83
67555;HTU21D;54385;53.516;49.456;2022-11-13T15:39:40;3.91;111.78
67555;HTU21D;54385;53.516;49.456;2022-11-13T15:42:14;3.97;112.60
67555;HTU21D;54385;53.516;49.456;2022-11-13T15:44:41;3.93;111.45
67555;HTU21D;54385;53.516;49.456;2022-11-13T15:47:29;3.97;111.29
67555;HTU21D;54385;53.516;49.456;2022-11-13T15:49:56;3.95;111.10
67555;HTU21D;54385;53.516;49.456;2022-11-13T15:52:25;3.94;111.07
67555;HTU21D;54385;53.516;49.456;2022-11-13T15:54:52;3.98;110.93
67555;HTU21D;54385;53.516;49.456;2022-11-13T15:57:24;4.05;111.46
67555;HTU21D;54385;53.516;49.456;2022-11-13T15:59:51;4.00;111.05
67555;HTU21D;54385;53.516;49.456;2022-11-13T16:02:17;4.04;110.96
67555;HTU21D;54385;53.516;49.456;2022-11-13T16:04:44;4.03;110.26
67555;HTU21D;54385;53.516;49.456;2022-11-13T16:07:15;4.08;109.77
67555;HTU21D;54385;53.516;49.456;2022-11-13T16:09:43;4.13;109.62
67555;HTU21D;54385;53.516;49.456;2022-11-13T16:12:11;4.08;109.40
67555;HTU21D;54385;53.516;49.456;2022-11-13T16:14:38;4.16;109.13
67555;HTU21D;54385;53.516;49.456;2022-11-13T16:17:24;4.17;108.96
67555;HTU21D;54385;53.516;49.456;2022-11-13T16:19:52;4.14;108.76
67555;HTU21D;54385;53.516;49.456;2022-11-13T16:22:24;4.13;108.52
67555;HTU21D;54385;53.516;49.456;2022-11-13T16:24:51;4.12;108.18
67555;HTU21D;54385;53.516;49.456;2022-11-13T16:27:28;4.08;107.85
67555;HTU21D;54385;53.516;49.456;2022-11-13T16:29:55;4.12;107.72
67555;HTU21D;54385;53.516;49.456;2022-11-13T16:32:21;4.03;107.55
67555;HTU21D;54385;53.516;49.456;2022-11-13T16:34:48;3.99;107.43
67555;HTU21D;54385;53.516;49.456;2022-11-13T16:37:22;3.98;107.35
67555;HTU21D;54385;53.516;49.456;2022-11-13T16:39:49;3.93;107.07
67555;HTU21D;54385;53.516;49.456;2022-11-13T16:42:16;3.99;107.12
67555;HTU21D;54385;53.516;49.456;2022-11-13T16:44:43;4.03;107.24
67555;HTU21D;54385;53.516;49.456;2022-11-13T16:47:35;3.97;107.22
67555;HTU21D;54385;53.516;49.456;2022-11-13T16:50:02;3.88;107.18
67555;HTU21D;54385;53.516;49.456;2022-11-13T16:52:28;3.75;107.15
67555;HTU21D;54385;53.516;49.456;2022-11-13T16:54:56;3.59;107.37
67555;HTU21D;54385;53.516;49.456;2022-11-13T16:57:23;3.44;107.98
67555;HTU21D;54385;53.516;49.456;2022-11-13T16:59:49;3.41;107.68